KSHR/SHR METAR and TAF weather

Enter ICAO airport designator
Station Type Date Time Source
KSHR METAR 2021/06/24 04:53 UTC NOAA

KSHR 240453Z AUTO 13011KT 10SM FEW060 OVC090 22/11 A2997 RMK AO2 PRESFR SLP103 T02220106


Station Type Date Time Source
KSHR Decoded METAR 2021/06/24 04:53 UTC NOAA

SHERIDAN COUNTY AIRPORT, WY, United States (KSHR) 44-46N 106-58W 1202M
Jun 24, 2021 - 12:53 AM EDT / 2021.06.24 0453 UTC
Wind: from the SE (130 degrees) at 13 MPH (11 KT):0
Visibility: 10 mile(s):0
Sky conditions: overcast
Temperature: 72.0 F (22.2 C)
Dew Point: 51.1 F (10.6 C)
Relative Humidity: 47%
Pressure (altimeter): 29.97 in. Hg (1014 hPa)
Pressure tendency: falling rapidly
ob: KSHR 240453Z AUTO 13011KT 10SM FEW060 OVC090 22/11 A2997 RMK AO2 PRESFR SLP103 T02220106
cycle: 5

Station Type Date Time Source
KSHR TAF 2021/06/24 03:24 UTC NOAA

TAF
AMD KSHR 240322Z 2403/2424 31010G20KT P6SM VCTS SCT080CB BKN120
FM240500 VRB05KT P6SM VCSH SCT120 OVC200
FM241500 32011G20KT P6SM VCTS SCT080CB BKN120

Example: see airport list